Time;durP1;ratioP1;P1;durP2;ratioP2;P2;SDS_P1;SDS_P2;PMS_P1;PMS_P2;Temp;Humidity;BMP_temperature;BMP_pressure;BME280_temperature;BME280_humidity;BME280_pressure;Samples;Min_cycle;Max_cycle;Signal;HPM_P1;HPM_P2
2023/06/12 00:00:56;;;;;;;0.00;0.00;;;25.20;74.90;;;;;;5075825;28;20032;-73
2023/06/12 00:03:26;;;;;;;0.10;0.10;;;25.20;74.60;;;;;;5075948;28;20020;-73
2023/06/12 00:05:58;;;;;;;0.43;0.43;;;25.20;74.30;;;;;;5075546;28;20040;-73
2023/06/12 00:08:26;;;;;;;0.13;0.13;;;25.10;74.30;;;;;;5075486;28;20032;-73
2023/06/12 00:10:52;;;;;;;0.03;0.03;;;25.00;74.40;;;;;;5075369;28;20139;-73
2023/06/12 00:13:18;;;;;;;0.13;0.13;;;25.00;74.40;;;;;;5075787;28;20063;-73
2023/06/12 00:15:44;;;;;;;0.00;0.00;;;24.90;74.70;;;;;;5075454;28;20444;-73
2023/06/12 00:18:11;;;;;;;0.00;0.00;;;24.80;74.70;;;;;;5075599;28;20424;-73
2023/06/12 00:20:36;;;;;;;0.03;0.03;;;24.90;75.00;;;;;;5075099;28;20028;-73
2023/06/12 00:23:02;;;;;;;0.00;0.00;;;24.90;75.30;;;;;;5075294;28;20025;-74
2023/06/12 00:25:28;;;;;;;0.10;0.10;;;24.90;75.00;;;;;;5075438;28;20042;-73
2023/06/12 00:27:54;;;;;;;0.00;0.00;;;24.90;74.90;;;;;;5075230;28;20028;-73
2023/06/12 00:30:20;;;;;;;0.38;0.38;;;24.90;74.80;;;;;;5075539;28;20495;-74
2023/06/12 00:32:46;;;;;;;2.75;2.65;;;25.00;74.90;;;;;;5073512;28;20020;-74
2023/06/12 00:35:12;;;;;;;0.10;0.10;;;25.00;74.90;;;;;;5074010;28;20017;-73
2023/06/12 00:37:41;;;;;;;0.00;0.00;;;24.70;76.30;;;;;;5074968;28;20100;-73
2023/06/12 00:40:09;;;;;;;0.20;0.20;;;24.60;75.40;;;;;;5073729;28;20040;-74
2023/06/12 00:42:41;;;;;;;0.10;0.10;;;24.50;74.90;;;;;;5073789;28;20033;-73
2023/06/12 00:45:08;;;;;;;1.00;0.65;;;24.40;76.00;;;;;;5072549;28;20477;-73
2023/06/12 00:47:35;;;;;;;0.30;0.30;;;24.30;75.70;;;;;;5073770;28;20389;-74
2023/06/12 00:50:01;;;;;;;0.00;0.00;;;24.30;75.20;;;;;;5074597;28;20032;-73
2023/06/12 00:52:34;;;;;;;0.30;0.30;;;24.30;75.40;;;;;;5073863;28;20017;-73
2023/06/12 00:55:01;;;;;;;0.63;0.35;;;24.20;75.10;;;;;;5074954;28;20052;-74
2023/06/12 00:57:27;;;;;;;0.25;0.25;;;24.10;75.20;;;;;;5073393;28;20487;-73
2023/06/12 00:59:53;;;;;;;0.32;0.30;;;24.00;75.00;;;;;;5073767;28;20039;-73
2023/06/12 01:02:23;;;;;;;0.10;0.10;;;24.10;75.20;;;;;;5074611;28;20033;-73
2023/06/12 01:04:50;;;;;;;0.38;0.30;;;24.00;75.60;;;;;;5074574;28;20046;-73
2023/06/12 01:07:44;;;;;;;0.10;0.10;;;23.90;75.80;;;;;;5074616;28;20138;-73
2023/06/12 01:10:45;;;;;;;0.10;0.10;;;23.90;75.90;;;;;;5074176;28;20094;-74
2023/06/12 01:13:12;;;;;;;0.10;0.10;;;24.00;75.90;;;;;;5073240;28;20094;-74
2023/06/12 01:15:38;;;;;;;0.75;0.75;;;24.00;76.90;;;;;;5074489;28;20385;-74
2023/06/12 01:18:06;;;;;;;1.00;0.80;;;24.00;76.10;;;;;;5073212;28;20051;-73
2023/06/12 01:20:34;;;;;;;1.13;1.02;;;23.90;77.10;;;;;;5072840;28;20032;-73
2023/06/12 01:23:18;;;;;;;0.00;0.00;;;24.00;77.30;;;;;;5074408;28;20032;-73
2023/06/12 01:25:53;;;;;;;21.58;1.95;;;24.00;76.60;;;;;;5074144;28;20507;-73
2023/06/12 01:28:52;;;;;;;0.05;0.05;;;23.80;76.40;;;;;;5072976;28;20393;-73
2023/06/12 01:31:34;;;;;;;0.00;0.00;;;23.90;76.70;;;;;;5074081;28;20025;-73
2023/06/12 01:34:09;;;;;;;0.10;0.10;;;23.70;76.30;;;;;;5072394;28;20036;-73
2023/06/12 01:36:41;;;;;;;0.10;0.10;;;23.60;76.70;;;;;;5074397;28;20024;-73
2023/06/12 01:39:12;;;;;;;0.17;0.17;;;23.70;77.90;;;;;;5070114;28;20481;-74
2023/06/12 01:41:39;;;;;;;0.10;0.10;;;23.60;77.90;;;;;;5073164;28;20031;-74
2023/06/12 01:44:08;;;;;;;0.10;0.10;;;23.50;78.50;;;;;;5072537;28;20035;-73
2023/06/12 01:46:35;;;;;;;0.30;0.30;;;23.60;78.20;;;;;;5072570;28;20047;-73
2023/06/12 01:49:06;;;;;;;2.00;1.10;;;23.70;78.60;;;;;;5072377;28;20104;-73
2023/06/12 01:51:32;;;;;;;0.00;0.00;;;23.70;78.60;;;;;;5072583;28;20057;-73
2023/06/12 01:53:58;;;;;;;0.00;0.00;;;23.60;78.70;;;;;;5072255;28;20025;-73
2023/06/12 01:56:25;;;;;;;11.63;0.80;;;23.60;78.50;;;;;;5072293;28;20039;-73
2023/06/12 01:58:52;;;;;;;0.10;0.10;;;23.60;78.60;;;;;;5071976;28;20058;-73
2023/06/12 02:01:34;;;;;;;2.92;0.65;;;23.60;78.50;;;;;;5072372;28;20078;-73
2023/06/12 02:04:00;;;;;;;0.00;0.00;;;23.50;79.50;;;;;;5072278;28;20022;-73
2023/06/12 02:06:25;;;;;;;0.05;0.05;;;23.40;79.60;;;;;;5072151;28;20377;-74
2023/06/12 02:08:52;;;;;;;0.10;0.10;;;23.30;79.70;;;;;;5073052;28;20039;-74
2023/06/12 02:11:19;;;;;;;0.10;0.10;;;23.30;80.40;;;;;;5072194;28;20024;-73
2023/06/12 02:13:45;;;;;;;0.10;0.10;;;23.20;80.50;;;;;;5072087;28;20048;-73
2023/06/12 02:16:13;;;;;;;0.08;0.08;;;23.30;81.20;;;;;;5072008;28;20070;-74
2023/06/12 02:18:40;;;;;;;0.08;0.08;;;23.30;81.20;;;;;;5071752;28;20020;-74
2023/06/12 02:21:06;;;;;;;0.00;0.00;;;23.20;81.40;;;;;;5071867;28;20070;-73
2023/06/12 02:23:32;;;;;;;0.10;0.10;;;23.30;81.30;;;;;;5051186;28;20389;-73
2023/06/12 02:25:58;;;;;;;0.00;0.00;;;23.50;80.70;;;;;;5051580;28;20040;-73
2023/06/12 02:28:24;;;;;;;0.73;0.73;;;23.60;79.90;;;;;;5051659;28;20130;-73
2023/06/12 02:30:49;;;;;;;0.10;0.10;;;23.20;79.90;;;;;;5051912;28;20116;-73
2023/06/12 02:33:16;;;;;;;0.00;0.00;;;23.10;80.60;;;;;;5051570;28;20020;-73
2023/06/12 02:35:43;;;;;;;0.10;0.10;;;23.10;80.60;;;;;;5051746;28;20264;-74
2023/06/12 02:38:10;;;;;;;3.25;0.63;;;23.00;81.20;;;;;;5051747;28;20029;-74
2023/06/12 02:40:36;;;;;;;2.22;0.65;;;23.10;80.70;;;;;;5051257;28;20116;-74
2023/06/12 02:43:02;;;;;;;0.25;0.25;;;22.70;81.80;;;;;;5052807;28;20095;-73
2023/06/12 02:45:30;;;;;;;0.03;0.03;;;22.70;82.50;;;;;;5051472;28;20037;-73
2023/06/12 02:47:56;;;;;;;0.55;0.55;;;22.80;82.90;;;;;;5051209;28;20029;-74
2023/06/12 02:50:22;;;;;;;0.90;0.90;;;23.00;82.00;;;;;;5034905;28;20035;-74
2023/06/12 02:52:54;;;;;;;0.10;0.10;;;22.80;82.10;;;;;;5051494;28;20039;-74
2023/06/12 02:55:20;;;;;;;0.10;0.10;;;22.50;83.30;;;;;;5051252;28;20370;-73
2023/06/12 02:57:46;;;;;;;0.00;0.00;;;22.60;83.60;;;;;;5051348;28;20021;-73
2023/06/12 03:00:14;;;;;;;0.28;0.28;;;22.40;85.00;;;;;;5051320;28;20478;-73
2023/06/12 03:02:47;;;;;;;0.10;0.10;;;22.40;84.20;;;;;;5050962;28;20033;-74
2023/06/12 03:05:14;;;;;;;0.00;0.00;;;22.20;85.60;;;;;;5051156;28;20041;-73
2023/06/12 03:07:41;;;;;;;0.20;0.17;;;22.30;85.50;;;;;;5052285;28;20561;-73
2023/06/12 03:10:09;;;;;;;0.40;0.40;;;22.00;87.30;;;;;;5051238;28;20053;-74
2023/06/12 03:12:35;;;;;;;0.25;0.25;;;21.70;89.00;;;;;;5052617;28;20025;-74
2023/06/12 03:15:05;;;;;;;0.20;0.20;;;21.50;90.50;;;;;;5050748;28;20025;-73
2023/06/12 03:17:31;;;;;;;0.10;0.10;;;21.40;90.90;;;;;;5051212;28;20370;-74
2023/06/12 03:19:56;;;;;;;2.72;0.70;;;21.30;91.10;;;;;;5051025;28;20085;-74
2023/06/12 03:22:23;;;;;;;0.20;0.20;;;21.30;91.60;;;;;;5051309;28;20028;-73
2023/06/12 03:24:53;;;;;;;0.10;0.10;;;21.40;91.40;;;;;;5051938;28;20516;-73
2023/06/12 03:27:20;;;;;;;0.10;0.10;;;21.60;90.80;;;;;;5051159;28;20029;-73
2023/06/12 03:29:47;;;;;;;0.35;0.35;;;21.50;91.00;;;;;;5050411;28;20044;-73
2023/06/12 03:32:14;;;;;;;0.10;0.10;;;21.50;91.40;;;;;;5050415;28;20025;-73
2023/06/12 03:34:47;;;;;;;0.00;0.00;;;21.70;91.00;;;;;;5050911;28;20079;-73
2023/06/12 03:37:13;;;;;;;0.10;0.10;;;21.80;90.40;;;;;;5050866;28;20433;-74
2023/06/12 03:39:40;;;;;;;0.00;0.00;;;22.00;91.10;;;;;;5051009;28;20061;-73
2023/06/12 03:42:07;;;;;;;0.10;0.10;;;22.00;91.10;;;;;;5034290;28;20511;-73
2023/06/12 03:44:59;;;;;;;0.38;0.28;;;22.20;90.70;;;;;;5047017;28;20045;-74
2023/06/12 03:47:25;;;;;;;2.10;0.55;;;21.90;90.90;;;;;;5052096;28;20024;-73
2023/06/12 03:49:51;;;;;;;0.10;0.10;;;21.40;92.70;;;;;;5050829;28;20052;-73
2023/06/12 03:52:18;;;;;;;0.10;0.10;;;21.20;94.00;;;;;;5050927;28;20486;-73
2023/06/12 03:54:44;;;;;;;0.00;0.00;;;21.20;94.60;;;;;;5052050;28;20017;-74
2023/06/12 03:57:10;;;;;;;0.10;0.10;;;21.20;94.60;;;;;;5050728;28;20091;-74
2023/06/12 03:59:36;;;;;;;0.00;0.00;;;21.50;94.50;;;;;;5050283;28;20477;-73
2023/06/12 04:02:02;;;;;;;0.00;0.00;;;21.70;94.00;;;;;;5052010;28;20025;-73
2023/06/12 04:04:29;;;;;;;0.10;0.10;;;21.90;93.50;;;;;;5034247;28;20029;-74
2023/06/12 04:06:56;;;;;;;0.08;0.08;;;22.00;93.10;;;;;;5034348;28;20417;-73
2023/06/12 04:09:22;;;;;;;0.00;0.00;;;22.10;93.90;;;;;;5050515;28;20025;-73
2023/06/12 04:11:48;;;;;;;0.00;0.00;;;22.30;93.60;;;;;;5034297;28;20028;-74
2023/06/12 04:14:14;;;;;;;0.00;0.00;;;22.40;93.00;;;;;;5050338;28;20025;-74
2023/06/12 04:16:39;;;;;;;0.10;0.10;;;22.50;92.40;;;;;;5051995;28;20021;-74
2023/06/12 04:19:05;;;;;;;0.00;0.00;;;22.70;91.70;;;;;;5052046;28;20416;-73
2023/06/12 04:21:35;;;;;;;0.10;0.10;;;22.40;92.10;;;;;;5053442;28;20036;-74
2023/06/12 04:24:04;;;;;;;0.10;0.10;;;22.40;92.60;;;;;;5054272;28;20035;-73
2023/06/12 04:26:31;;;;;;;0.57;0.57;;;22.40;93.10;;;;;;5053940;28;20066;-74
2023/06/12 04:28:57;;;;;;;0.00;0.00;;;22.00;93.50;;;;;;5053909;28;20025;-73
2023/06/12 04:31:26;;;;;;;0.10;0.10;;;21.70;94.70;;;;;;5054009;28;20029;-74
2023/06/12 04:33:55;;;;;;;2.47;2.28;;;21.50;95.90;;;;;;5053811;28;20465;-74
2023/06/12 04:36:22;;;;;;;0.20;0.20;;;21.30;97.10;;;;;;5053966;28;20021;-73
2023/06/12 04:38:51;;;;;;;0.10;0.10;;;21.40;97.90;;;;;;5053893;28;20499;-74
2023/06/12 04:41:19;;;;;;;0.10;0.10;;;21.80;97.30;;;;;;5053741;28;20025;-74
2023/06/12 04:43:48;;;;;;;0.00;0.00;;;22.00;96.50;;;;;;5054690;28;20499;-74
2023/06/12 04:46:17;;;;;;;0.10;0.10;;;22.40;95.30;;;;;;5053574;28;20033;-73
2023/06/12 04:48:45;;;;;;;0.10;0.10;;;22.50;95.20;;;;;;5037314;28;20051;-73
2023/06/12 04:51:13;;;;;;;0.10;0.10;;;22.50;95.00;;;;;;5053650;28;20021;-74
2023/06/12 04:53:43;;;;;;;0.43;0.43;;;22.40;95.20;;;;;;5053532;28;20120;-74
2023/06/12 04:56:12;;;;;;;0.40;0.40;;;22.30;95.90;;;;;;5055145;28;20037;-74
2023/06/12 04:58:41;;;;;;;0.70;0.28;;;22.10;95.30;;;;;;5053138;28;20021;-73
2023/06/12 05:01:08;;;;;;;0.43;0.43;;;21.90;95.10;;;;;;5053381;28;20032;-74
2023/06/12 05:03:34;;;;;;;0.13;0.13;;;22.00;94.60;;;;;;5053396;28;20504;-74
2023/06/12 05:06:00;;;;;;;0.10;0.10;;;22.00;94.50;;;;;;5054555;28;20061;-74
2023/06/12 05:08:28;;;;;;;0.00;0.00;;;22.00;94.10;;;;;;5053279;28;20027;-73
2023/06/12 05:10:54;;;;;;;0.10;0.10;;;21.90;94.20;;;;;;5052743;28;20136;-74
2023/06/12 05:13:20;;;;;;;0.20;0.20;;;22.30;94.30;;;;;;5054577;28;20075;-74
2023/06/12 05:15:46;;;;;;;0.10;0.10;;;22.20;93.60;;;;;;5053949;28;20564;-73
2023/06/12 05:18:12;;;;;;;0.40;0.40;;;22.40;93.10;;;;;;5051293;28;20052;-75
2023/06/12 05:20:38;;;;;;;0.10;0.10;;;22.40;94.80;;;;;;5037439;28;20055;-74
2023/06/12 05:23:05;;;;;;;0.05;0.05;;;22.50;94.50;;;;;;5052026;28;20107;-74
2023/06/12 05:25:30;;;;;;;0.22;0.22;;;22.70;93.30;;;;;;5048140;28;20037;-74
2023/06/12 05:27:57;;;;;;;0.13;0.13;;;23.00;91.80;;;;;;5051853;28;20378;-73
2023/06/12 05:30:24;;;;;;;0.10;0.10;;;23.10;91.70;;;;;;5034976;28;20024;-74
2023/06/12 05:32:50;;;;;;;0.03;0.03;;;23.00;91.40;;;;;;5053040;28;20021;-74
2023/06/12 05:35:18;;;;;;;0.00;0.00;;;23.50;90.20;;;;;;5051885;28;20447;-77
2023/06/12 05:37:44;;;;;;;0.10;0.10;;;23.90;88.50;;;;;;5052856;28;20386;-74
2023/06/12 05:40:12;;;;;;;0.22;0.15;;;24.10;87.70;;;;;;5051608;28;20384;-76
2023/06/12 05:42:39;;;;;;;2.72;1.45;;;24.20;86.20;;;;;;5051643;28;20155;-74
2023/06/12 05:45:07;;;;;;;0.10;0.10;;;24.40;86.20;;;;;;5051661;28;20091;-74
2023/06/12 05:47:33;;;;;;;0.25;0.25;;;24.60;85.10;;;;;;5035172;28;20020;-74
2023/06/12 05:50:00;;;;;;;0.10;0.10;;;24.60;84.90;;;;;;5051406;28;20529;-72
2023/06/12 05:52:26;;;;;;;2.97;1.50;;;24.50;85.20;;;;;;5051521;28;20021;-76
2023/06/12 05:54:51;;;;;;;0.10;0.10;;;24.20;84.50;;;;;;5051327;28;20402;-75
2023/06/12 05:57:18;;;;;;;4.85;0.60;;;24.10;84.30;;;;;;5051495;28;20525;-75
2023/06/12 05:59:44;;;;;;;0.32;0.32;;;24.30;83.50;;;;;;5050964;28;20112;-74
2023/06/12 06:02:11;;;;;;;1.13;0.65;;;24.10;83.60;;;;;;5051814;28;20052;-75
2023/06/12 06:04:37;;;;;;;0.98;0.77;;;24.40;82.70;;;;;;5051246;28;20056;-75
2023/06/12 06:07:03;;;;;;;0.17;0.17;;;24.50;83.30;;;;;;5051453;28;20538;-75
2023/06/12 06:09:29;;;;;;;0.50;0.50;;;24.70;82.60;;;;;;5051041;28;20021;-74
2023/06/12 06:11:56;;;;;;;0.55;0.55;;;24.70;81.80;;;;;;5045193;28;20037;-75
2023/06/12 06:14:22;;;;;;;6.70;2.85;;;24.90;81.70;;;;;;5051090;28;20428;-75
2023/06/12 06:16:48;;;;;;;0.20;0.20;;;24.90;82.10;;;;;;5051251;28;20025;-76
2023/06/12 06:19:14;;;;;;;0.10;0.10;;;24.80;82.20;;;;;;5023304;28;20075;-74
2023/06/12 06:21:40;;;;;;;0.10;0.10;;;25.20;81.00;;;;;;5052345;28;20025;-74
2023/06/12 06:24:07;;;;;;;0.30;0.30;;;25.20;80.20;;;;;;5050672;28;20017;-75
2023/06/12 06:26:33;;;;;;;0.08;0.08;;;25.30;79.50;;;;;;5050759;28;20033;-74
2023/06/12 06:28:59;;;;;;;1.50;1.40;;;25.00;79.60;;;;;;5050524;28;20154;-75
2023/06/12 06:31:27;;;;;;;9.68;1.75;;;25.40;78.00;;;;;;5051114;28;20051;-75
2023/06/12 06:33:53;;;;;;;0.20;0.20;;;25.10;77.60;;;;;;5050932;28;20021;-75
2023/06/12 06:36:18;;;;;;;0.10;0.10;;;24.90;79.20;;;;;;5052219;28;20385;-74
2023/06/12 06:38:45;;;;;;;0.10;0.10;;;24.80;77.60;;;;;;5050391;28;20059;-74
2023/06/12 06:41:10;;;;;;;0.77;0.77;;;25.00;77.80;;;;;;5050925;28;20033;-75
2023/06/12 06:43:36;;;;;;;0.10;0.10;;;25.00;77.50;;;;;;5050825;28;20040;-74
2023/06/12 06:46:06;;;;;;;0.45;0.43;;;25.20;77.20;;;;;;5050867;28;20036;-74
2023/06/12 06:48:33;;;;;;;0.10;0.10;;;25.10;77.60;;;;;;5050548;28;20020;-75
2023/06/12 06:51:02;;;;;;;0.10;0.10;;;25.20;77.00;;;;;;5050455;28;20060;-75
2023/06/12 06:53:28;;;;;;;0.30;0.30;;;25.30;76.60;;;;;;5050196;28;20017;-74
2023/06/12 06:55:54;;;;;;;0.20;0.20;;;25.40;77.20;;;;;;5050560;28;20039;-75
2023/06/12 06:58:20;;;;;;;0.50;0.50;;;25.40;77.00;;;;;;5050551;28;20038;-74
2023/06/12 07:00:46;;;;;;;0.28;0.22;;;25.70;76.00;;;;;;5050222;28;20028;-74
2023/06/12 07:03:12;;;;;;;2.17;0.65;;;25.60;76.30;;;;;;5050735;28;20033;-74
2023/06/12 07:05:39;;;;;;;1.33;1.08;;;25.70;76.90;;;;;;5050116;28;20055;-74
2023/06/12 07:08:06;;;;;;;0.20;0.20;;;25.60;75.40;;;;;;5050307;28;20664;-74
2023/06/12 07:10:34;;;;;;;0.28;0.28;;;25.40;75.70;;;;;;5050186;28;20021;-75
2023/06/12 07:13:02;;;;;;;0.52;0.43;;;25.50;74.10;;;;;;5050473;28;20108;-74
2023/06/12 07:15:43;;;;;;;0.70;0.70;;;25.70;74.00;;;;;;5050446;28;20397;-75
2023/06/12 07:18:09;;;;;;;1.15;1.08;;;26.00;73.50;;;;;;5049876;28;20284;-75
2023/06/12 07:20:35;;;;;;;0.57;0.57;;;26.10;74.00;;;;;;5050549;28;20032;-77
2023/06/12 07:23:02;;;;;;;0.57;0.57;;;26.10;73.00;;;;;;5050019;28;20382;-74
2023/06/12 07:25:28;;;;;;;2.10;2.00;;;26.10;73.60;;;;;;5049976;28;20099;-75
2023/06/12 07:27:54;;;;;;;0.00;0.00;;;26.10;72.80;;;;;;5050193;28;20028;-75
2023/06/12 07:30:20;;;;;;;0.28;0.28;;;26.10;73.80;;;;;;5051259;28;20028;-75
2023/06/12 07:32:46;;;;;;;0.10;0.10;;;26.30;74.00;;;;;;5050510;28;20025;-75
2023/06/12 07:35:12;;;;;;;0.30;0.30;;;26.50;74.50;;;;;;5050196;28;20046;-75
2023/06/12 07:37:38;;;;;;;0.10;0.10;;;26.90;73.50;;;;;;5051230;28;20415;-75
2023/06/12 07:40:05;;;;;;;0.00;0.00;;;27.00;74.70;;;;;;5050072;28;20025;-75
2023/06/12 07:42:32;;;;;;;0.10;0.10;;;27.20;75.10;;;;;;5049845;28;20037;-75
2023/06/12 07:44:58;;;;;;;0.22;0.22;;;27.40;73.90;;;;;;5050241;28;20029;-75
2023/06/12 07:47:24;;;;;;;0.88;0.73;;;27.50;72.70;;;;;;5049741;28;20470;-75
2023/06/12 07:49:50;;;;;;;0.10;0.10;;;27.80;71.10;;;;;;5066400;28;20017;-75
2023/06/12 07:52:16;;;;;;;0.65;0.65;;;28.10;70.70;;;;;;5050713;28;20029;-74
2023/06/12 07:54:42;;;;;;;0.10;0.10;;;28.10;71.00;;;;;;5051540;28;20492;-74
2023/06/12 07:57:08;;;;;;;0.10;0.10;;;28.20;70.10;;;;;;5053855;28;20120;-74
2023/06/12 07:59:34;;;;;;;0.60;0.60;;;28.10;69.70;;;;;;5050371;28;20017;-75
2023/06/12 08:02:01;;;;;;;1.05;0.95;;;28.30;68.90;;;;;;5054863;28;20021;-74
2023/06/12 08:04:29;;;;;;;6.13;1.35;;;28.10;67.90;;;;;;5053552;28;20035;-74
2023/06/12 08:06:55;;;;;;;0.15;0.15;;;27.90;67.80;;;;;;5053477;28;20024;-73
2023/06/12 08:09:23;;;;;;;0.80;0.73;;;28.10;68.40;;;;;;5053528;28;20525;-74
2023/06/12 08:11:48;;;;;;;0.57;0.57;;;28.20;67.00;;;;;;5054657;28;20025;-74
2023/06/12 08:14:15;;;;;;;0.00;0.00;;;28.00;66.90;;;;;;5054801;28;20391;-74
2023/06/12 08:16:41;;;;;;;0.10;0.10;;;28.10;68.30;;;;;;5053448;28;20021;-74
2023/06/12 08:19:08;;;;;;;0.05;0.05;;;28.30;67.10;;;;;;5053788;28;20029;-74
2023/06/12 08:21:36;;;;;;;0.57;0.57;;;28.70;66.00;;;;;;5052619;28;20043;-74
2023/06/12 08:24:03;;;;;;;2.53;0.47;;;28.90;66.40;;;;;;5053461;28;20033;-74
2023/06/12 08:26:30;;;;;;;0.10;0.10;;;28.90;65.70;;;;;;5053064;28;20087;-74
2023/06/12 08:28:57;;;;;;;0.00;0.00;;;29.20;64.30;;;;;;5053441;28;20020;-75
2023/06/12 08:31:26;;;;;;;1.63;0.98;;;29.00;65.00;;;;;;5053057;28;20059;-74
2023/06/12 08:33:52;;;;;;;0.00;0.00;;;29.00;64.40;;;;;;5054403;28;20044;-74
2023/06/12 08:36:17;;;;;;;0.43;0.40;;;28.80;65.50;;;;;;5052700;28;20543;-74
2023/06/12 08:38:44;;;;;;;0.00;0.00;;;28.90;64.30;;;;;;5041646;28;20120;-75
2023/06/12 08:41:16;;;;;;;1.30;1.20;;;29.20;65.20;;;;;;5052835;28;20485;-74
2023/06/12 08:43:42;;;;;;;1.23;1.10;;;29.30;64.70;;;;;;5052567;28;20033;-74
2023/06/12 08:46:08;;;;;;;4.47;1.10;;;29.20;64.50;;;;;;5053054;28;20398;-74
2023/06/12 08:48:34;;;;;;;0.47;0.47;;;29.00;64.40;;;;;;5053372;28;20024;-74
2023/06/12 08:51:02;;;;;;;3.35;2.50;;;29.10;65.40;;;;;;5054010;28;20537;-74
2023/06/12 08:53:28;;;;;;;0.20;0.20;;;29.30;64.50;;;;;;5053968;28;20033;-74
2023/06/12 08:55:55;;;;;;;0.65;0.20;;;29.50;63.80;;;;;;5052946;28;20052;-74
2023/06/12 08:58:22;;;;;;;1.05;1.05;;;29.60;63.70;;;;;;5054063;28;20021;-74
2023/06/12 09:00:47;;;;;;;7.93;0.85;;;29.70;64.40;;;;;;5053774;28;20536;-74
2023/06/12 09:03:13;;;;;;;0.35;0.25;;;30.00;63.70;;;;;;5052164;28;20273;-73
2023/06/12 09:05:40;;;;;;;4.10;1.48;;;30.00;63.40;;;;;;5052771;28;20072;-74
2023/06/12 09:08:06;;;;;;;0.08;0.08;;;30.20;63.00;;;;;;5053890;28;20470;-74
2023/06/12 09:10:33;;;;;;;1.60;1.15;;;30.60;61.60;;;;;;5053698;28;20032;-74
2023/06/12 09:13:01;;;;;;;0.60;0.20;;;30.30;63.30;;;;;;5052172;28;20029;-74
2023/06/12 09:15:27;;;;;;;1.30;0.82;;;30.30;62.20;;;;;;5052345;28;20029;-74
2023/06/12 09:17:54;;;;;;;1.17;0.55;;;30.30;61.40;;;;;;5053416;28;20028;-73
2023/06/12 09:20:29;;;;;;;1.63;1.33;;;30.30;62.90;;;;;;5054701;28;20028;-74
2023/06/12 09:23:03;;;;;;;0.85;0.85;;;30.30;61.80;;;;;;5053362;28;20116;-74
2023/06/12 09:25:40;;;;;;;0.00;0.00;;;30.30;61.30;;;;;;5053239;28;20101;-75
2023/06/12 09:28:08;;;;;;;0.63;0.40;;;30.50;59.10;;;;;;5050025;28;20175;-74
2023/06/12 09:30:41;;;;;;;0.70;0.55;;;30.90;59.40;;;;;;5052099;28;20025;-74
2023/06/12 09:33:08;;;;;;;2.17;0.63;;;30.70;61.00;;;;;;5051935;28;20049;-74
2023/06/12 09:35:50;;;;;;;0.13;0.13;;;31.00;60.70;;;;;;5053176;28;20029;-74
2023/06/12 09:38:15;;;;;;;0.43;0.28;;;31.20;59.10;;;;;;5045833;28;20490;-74
2023/06/12 09:40:41;;;;;;;0.00;0.00;;;31.30;59.50;;;;;;5052742;28;20092;-72
2023/06/12 09:43:07;;;;;;;0.57;0.57;;;31.40;59.60;;;;;;5053259;28;20037;-74
2023/06/12 09:45:33;;;;;;;0.35;0.35;;;31.00;59.70;;;;;;5052903;28;20037;-74
2023/06/12 09:47:58;;;;;;;0.00;0.00;;;30.80;61.20;;;;;;5052724;28;20381;-74
2023/06/12 09:50:25;;;;;;;0.03;0.03;;;31.30;61.00;;;;;;5047360;28;20021;-74
2023/06/12 09:52:57;;;;;;;0.77;0.77;;;31.10;60.00;;;;;;5052784;28;20025;-72
2023/06/12 09:55:25;;;;;;;0.00;0.00;;;31.20;61.20;;;;;;5051715;28;20025;-73
2023/06/12 09:57:52;;;;;;;0.10;0.10;;;31.60;60.20;;;;;;5052705;28;20036;-74
2023/06/12 10:00:20;;;;;;;0.32;0.32;;;31.80;59.50;;;;;;5051289;28;20059;-74
2023/06/12 10:03:06;;;;;;;9.35;0.88;;;31.80;58.70;;;;;;5052180;28;20021;-73
2023/06/12 10:05:47;;;;;;;0.38;0.30;;;32.10;57.10;;;;;;5052488;28;20074;-74
2023/06/12 10:08:13;;;;;;;0.95;0.88;;;31.80;56.20;;;;;;5052766;28;20477;-73
2023/06/12 10:10:40;;;;;;;0.13;0.13;;;32.00;57.50;;;;;;5052506;28;20025;-73
2023/06/12 10:13:06;;;;;;;0.43;0.40;;;32.50;57.70;;;;;;5052529;28;20059;-73
2023/06/12 10:15:33;;;;;;;0.40;0.40;;;32.20;58.90;;;;;;5052290;28;20031;-74
2023/06/12 10:17:59;;;;;;;0.43;0.43;;;32.20;58.60;;;;;;5052212;28;20111;-73
2023/06/12 10:20:26;;;;;;;0.65;0.65;;;32.20;59.30;;;;;;5040879;28;20532;-74
2023/06/12 10:22:55;;;;;;;1.65;0.60;;;32.30;58.20;;;;;;5050875;28;20021;-74
2023/06/12 10:25:21;;;;;;;0.40;0.25;;;32.30;58.10;;;;;;5052202;28;20045;-74
2023/06/12 10:27:47;;;;;;;0.00;0.00;;;32.60;58.80;;;;;;5051979;28;20025;-72
2023/06/12 10:30:17;;;;;;;0.55;0.25;;;32.50;58.50;;;;;;5050184;28;20460;-77
2023/06/12 10:32:44;;;;;;;1.13;1.02;;;32.30;58.70;;;;;;5052031;28;20490;-77
2023/06/12 10:35:10;;;;;;;0.57;0.30;;;32.00;58.60;;;;;;5052660;28;20024;-77
2023/06/12 10:37:43;;;;;;;0.08;0.08;;;32.50;59.40;;;;;;5051645;28;20021;-77
2023/06/12 10:40:15;;;;;;;0.00;0.00;;;32.20;58.60;;;;;;5051331;28;20060;-77
2023/06/12 10:42:47;;;;;;;0.20;0.20;;;32.60;59.10;;;;;;5052917;28;20102;-78
2023/06/12 10:45:24;;;;;;;0.32;0.32;;;33.00;58.50;;;;;;5052129;28;20572;-77
2023/06/12 10:48:08;;;;;;;3.75;0.75;;;33.40;56.80;;;;;;5040261;28;20095;-77
2023/06/12 10:50:44;;;;;;;0.20;0.20;;;32.90;57.00;;;;;;5052185;28;20028;-77
2023/06/12 10:53:14;;;;;;;0.13;0.13;;;33.00;57.60;;;;;;5052991;28;20033;-77
2023/06/12 10:55:43;;;;;;;1.85;1.15;;;33.20;58.10;;;;;;5051062;28;20031;-77
2023/06/12 10:58:15;;;;;;;0.55;0.40;;;33.00;58.40;;;;;;5052603;28;20017;-77
2023/06/12 11:00:51;;;;;;;0.43;0.40;;;32.90;58.80;;;;;;5052080;28;20041;-77
2023/06/12 11:03:29;;;;;;;0.22;0.22;;;32.70;59.50;;;;;;5052546;28;20040;-77
2023/06/12 11:06:08;;;;;;;0.10;0.10;;;33.00;60.80;;;;;;5052239;28;20120;-78
2023/06/12 11:08:34;;;;;;;1.38;1.27;;;33.40;58.60;;;;;;5052473;28;20079;-77
2023/06/12 11:11:06;;;;;;;1.45;0.50;;;33.40;58.70;;;;;;5051066;28;20036;-78
2023/06/12 11:13:32;;;;;;;8.38;2.03;;;33.40;58.50;;;;;;5052299;28;20034;-78
2023/06/12 11:15:58;;;;;;;0.40;0.40;;;33.10;57.90;;;;;;5052251;28;20037;-77
2023/06/12 11:18:23;;;;;;;0.17;0.17;;;33.40;57.60;;;;;;5052312;28;20112;-78
2023/06/12 11:20:53;;;;;;;0.57;0.45;;;33.80;57.20;;;;;;5050964;28;20025;-79
2023/06/12 11:23:27;;;;;;;3.27;1.03;;;33.80;56.80;;;;;;5052208;28;20558;-78
2023/06/12 11:25:55;;;;;;;0.38;0.38;;;33.20;56.90;;;;;;5052206;28;20107;-77
2023/06/12 11:28:23;;;;;;;0.55;0.32;;;33.00;56.80;;;;;;5051911;28;20083;-78
2023/06/12 11:30:56;;;;;;;2.38;2.17;;;33.10;57.30;;;;;;5055750;28;20442;-78
2023/06/12 11:33:22;;;;;;;0.70;0.70;;;33.80;58.20;;;;;;5056214;28;20470;-77
2023/06/12 11:35:50;;;;;;;0.90;0.88;;;33.90;58.30;;;;;;5054971;28;20393;-77
2023/06/12 11:38:18;;;;;;;0.90;0.20;;;33.80;57.30;;;;;;5056297;28;20024;-77
2023/06/12 11:40:45;;;;;;;6.32;0.38;;;33.90;57.70;;;;;;5054737;28;20442;-77
2023/06/12 11:43:11;;;;;;;0.00;0.00;;;34.30;57.80;;;;;;5055717;28;20405;-77
2023/06/12 11:45:43;;;;;;;1.73;1.17;;;34.20;55.70;;;;;;5055814;28;20028;-77
2023/06/12 11:48:16;;;;;;;0.55;0.52;;;33.90;55.80;;;;;;5056154;28;20453;-77
2023/06/12 11:50:46;;;;;;;4.28;1.60;;;33.80;57.80;;;;;;5055372;28;20040;-77
2023/06/12 11:53:13;;;;;;;0.10;0.10;;;33.90;57.70;;;;;;5055892;28;20079;-78
2023/06/12 11:55:39;;;;;;;0.30;0.30;;;34.30;57.20;;;;;;5055777;28;20032;-77
2023/06/12 11:58:05;;;;;;;0.68;0.50;;;34.40;57.90;;;;;;5055536;28;20025;-77
2023/06/12 12:00:34;;;;;;;0.05;0.05;;;34.80;57.30;;;;;;5055831;28;20040;-78
2023/06/12 12:03:04;;;;;;;0.00;0.00;;;35.20;57.80;;;;;;5037832;28;20033;-77
2023/06/12 12:05:35;;;;;;;3.70;0.40;;;35.40;57.60;;;;;;5055810;28;20040;-78
2023/06/12 12:08:03;;;;;;;0.10;0.10;;;34.90;56.40;;;;;;5055332;28;20029;-77
2023/06/12 12:10:31;;;;;;;0.80;0.80;;;35.10;56.70;;;;;;5055625;28;20037;-77
2023/06/12 12:12:59;;;;;;;0.52;0.35;;;35.20;55.70;;;;;;5054028;28;20021;-78
2023/06/12 12:15:30;;;;;;;0.88;0.65;;;35.30;56.30;;;;;;5055606;28;20557;-78
2023/06/12 12:17:57;;;;;;;0.35;0.35;;;35.00;55.10;;;;;;5054111;28;20033;-77
2023/06/12 12:20:25;;;;;;;0.35;0.35;;;34.80;55.90;;;;;;5055514;28;20021;-77
2023/06/12 12:22:53;;;;;;;1.02;0.55;;;34.90;57.40;;;;;;5055213;28;20064;-77
2023/06/12 12:25:22;;;;;;;0.50;0.50;;;35.20;56.50;;;;;;5055180;28;20366;-77
2023/06/12 12:27:49;;;;;;;0.65;0.43;;;35.50;56.10;;;;;;5054852;28;20029;-77
2023/06/12 12:30:16;;;;;;;0.10;0.10;;;35.90;55.30;;;;;;5053933;28;20056;-77
2023/06/12 12:32:46;;;;;;;0.57;0.28;;;36.20;54.00;;;;;;5055385;28;20024;-78
2023/06/12 12:35:14;;;;;;;0.10;0.10;;;36.10;55.00;;;;;;5055292;28;20029;-77
2023/06/12 12:37:41;;;;;;;0.45;0.13;;;36.10;54.50;;;;;;5055048;28;20112;-77
2023/06/12 12:40:13;;;;;;;0.60;0.60;;;35.60;54.70;;;;;;5054411;28;20021;-77
2023/06/12 12:42:40;;;;;;;0.30;0.30;;;35.70;54.40;;;;;;5054315;28;20119;-77
2023/06/12 12:45:08;;;;;;;0.77;0.77;;;35.60;54.90;;;;;;5055087;28;20477;-77
2023/06/12 12:47:35;;;;;;;0.60;0.45;;;35.90;54.20;;;;;;5054847;28;20075;-77
2023/06/12 12:50:03;;;;;;;0.03;0.03;;;35.70;54.00;;;;;;5055004;28;20025;-77
2023/06/12 12:52:30;;;;;;;0.47;0.47;;;36.10;54.10;;;;;;5054654;28;20029;-77